Time;durP1;ratioP1;P1;durP2;ratioP2;P2;SDS_P1;SDS_P2;PMS_P1;PMS_P2;Temp;Humidity;BMP_temperature;BMP_pressure;BME280_temperature;BME280_humidity;BME280_pressure;Samples;Min_cycle;Max_cycle;Signal;HPM_P1;HPM_P2
2020/12/17 00:00:06;;;;;;;9.7;3.3;;;;;;;;;;;;;
2020/12/17 00:02:31;;;;;;;11.1;3.2;;;;;;;;;;;;;
2020/12/17 00:04:56;;;;;;;7.8;3.6;;;;;;;;;;;;;
2020/12/17 00:07:22;;;;;;;8.8;3.9;;;;;;;;;;;;;
2020/12/17 00:09:47;;;;;;;6.1;3.1;;;;;;;;;;;;;
2020/12/17 00:12:12;;;;;;;8.8;3.3;;;;;;;;;;;;;
2020/12/17 00:14:37;;;;;;;14.1;3.9;;;;;;;;;;;;;
2020/12/17 00:17:03;;;;;;;4;2.4;;;;;;;;;;;;;
2020/12/17 00:19:29;;;;;;;5.3;2.7;;;;;;;;;;;;;
2020/12/17 00:21:54;;;;;;;2.7;2;;;;;;;;;;;;;
2020/12/17 00:24:20;;;;;;;2.9;1.9;;;;;;;;;;;;;
2020/12/17 00:26:45;;;;;;;7.1;2.6;;;;;;;;;;;;;
2020/12/17 00:29:10;;;;;;;5.3;2.3;;;;;;;;;;;;;
2020/12/17 00:31:35;;;;;;;1.9;1.3;;;;;;;;;;;;;
2020/12/17 00:34:00;;;;;;;3.5;2;;;;;;;;;;;;;
2020/12/17 00:36:25;;;;;;;2.5;1.8;;;;;;;;;;;;;
2020/12/17 00:38:51;;;;;;;6.8;1.9;;;;;;;;;;;;;
2020/12/17 00:41:16;;;;;;;2.7;1.6;;;;;;;;;;;;;
2020/12/17 00:43:41;;;;;;;1.6;1.1;;;;;;;;;;;;;
2020/12/17 00:46:06;;;;;;;2.7;1.4;;;;;;;;;;;;;
2020/12/17 00:48:32;;;;;;;2;1.3;;;;;;;;;;;;;
2020/12/17 00:50:57;;;;;;;2;1;;;;;;;;;;;;;
2020/12/17 00:53:22;;;;;;;1.4;1.1;;;;;;;;;;;;;
2020/12/17 00:55:48;;;;;;;2.8;1.5;;;;;;;;;;;;;
2020/12/17 00:58:13;;;;;;;5.1;1.4;;;;;;;;;;;;;
2020/12/17 01:00:38;;;;;;;6;1.7;;;;;;;;;;;;;
2020/12/17 01:03:05;;;;;;;2.1;1.6;;;;;;;;;;;;;
2020/12/17 01:05:30;;;;;;;4.7;1.3;;;;;;;;;;;;;
2020/12/17 01:07:55;;;;;;;2.7;1.6;;;;;;;;;;;;;
2020/12/17 01:10:21;;;;;;;2;1.1;;;;;;;;;;;;;
2020/12/17 01:12:46;;;;;;;4.3;1.3;;;;;;;;;;;;;
2020/12/17 01:15:11;;;;;;;1.1;1;;;;;;;;;;;;;
2020/12/17 01:17:38;;;;;;;7.9;1.2;;;;;;;;;;;;;
2020/12/17 01:20:03;;;;;;;1.3;1;;;;;;;;;;;;;
2020/12/17 01:22:29;;;;;;;2.9;1.4;;;;;;;;;;;;;
2020/12/17 01:24:54;;;;;;;4;1.5;;;;;;;;;;;;;
2020/12/17 01:27:20;;;;;;;1.5;1.2;;;;;;;;;;;;;
2020/12/17 01:29:45;;;;;;;4.4;1.1;;;;;;;;;;;;;
2020/12/17 01:32:10;;;;;;;1.7;1.1;;;;;;;;;;;;;
2020/12/17 01:34:36;;;;;;;2.4;1.3;;;;;;;;;;;;;
2020/12/17 01:37:01;;;;;;;1.8;1.5;;;;;;;;;;;;;
2020/12/17 01:39:26;;;;;;;1.7;0.7;;;;;;;;;;;;;
2020/12/17 01:41:51;;;;;;;2.2;1.4;;;;;;;;;;;;;
2020/12/17 01:44:16;;;;;;;0.8;0.8;;;;;;;;;;;;;
2020/12/17 01:46:41;;;;;;;0.8;0.8;;;;;;;;;;;;;
2020/12/17 01:49:08;;;;;;;3.2;0.9;;;;;;;;;;;;;
2020/12/17 01:51:33;;;;;;;1.4;0.8;;;;;;;;;;;;;
2020/12/17 01:53:59;;;;;;;1.9;1.3;;;;;;;;;;;;;
2020/12/17 01:56:24;;;;;;;1.5;0.8;;;;;;;;;;;;;
2020/12/17 01:58:50;;;;;;;0.9;0.9;;;;;;;;;;;;;
2020/12/17 02:01:15;;;;;;;2.2;1.1;;;;;;;;;;;;;
2020/12/17 02:03:42;;;;;;;2.4;1.5;;;;;;;;;;;;;
2020/12/17 02:06:07;;;;;;;2.1;1.1;;;;;;;;;;;;;
2020/12/17 02:08:33;;;;;;;5.8;1.4;;;;;;;;;;;;;
2020/12/17 02:10:58;;;;;;;0.7;0.7;;;;;;;;;;;;;
2020/12/17 02:13:24;;;;;;;1.7;1.2;;;;;;;;;;;;;
2020/12/17 02:15:49;;;;;;;1.2;0.8;;;;;;;;;;;;;
2020/12/17 02:18:14;;;;;;;1.9;1;;;;;;;;;;;;;
2020/12/17 02:20:39;;;;;;;4.4;1.2;;;;;;;;;;;;;
2020/12/17 02:23:04;;;;;;;2;1.3;;;;;;;;;;;;;
2020/12/17 02:25:29;;;;;;;0.9;0.8;;;;;;;;;;;;;
2020/12/17 02:27:54;;;;;;;3.7;1.3;;;;;;;;;;;;;
2020/12/17 02:30:22;;;;;;;1.7;1.2;;;;;;;;;;;;;
2020/12/17 02:32:47;;;;;;;1.5;1;;;;;;;;;;;;;
2020/12/17 02:35:13;;;;;;;1.3;1;;;;;;;;;;;;;
2020/12/17 02:37:38;;;;;;;1.5;1.1;;;;;;;;;;;;;
2020/12/17 02:40:03;;;;;;;1.6;1.1;;;;;;;;;;;;;
2020/12/17 02:42:28;;;;;;;0.8;0.8;;;;;;;;;;;;;
2020/12/17 02:44:54;;;;;;;1.1;0.8;;;;;;;;;;;;;
2020/12/17 02:47:19;;;;;;;2.3;0.6;;;;;;;;;;;;;
2020/12/17 02:49:45;;;;;;;2;1.1;;;;;;;;;;;;;
2020/12/17 02:52:10;;;;;;;0.7;0.7;;;;;;;;;;;;;
2020/12/17 02:54:36;;;;;;;0.7;0.7;;;;;;;;;;;;;
2020/12/17 02:57:02;;;;;;;0.5;0.5;;;;;;;;;;;;;
2020/12/17 02:59:27;;;;;;;0.5;0.5;;;;;;;;;;;;;
2020/12/17 03:01:52;;;;;;;0.9;0.9;;;;;;;;;;;;;
2020/12/17 03:04:17;;;;;;;3.4;1.1;;;;;;;;;;;;;
2020/12/17 03:06:42;;;;;;;0.4;0.4;;;;;;;;;;;;;
2020/12/17 03:09:07;;;;;;;1.6;1.1;;;;;;;;;;;;;
2020/12/17 03:11:33;;;;;;;1.5;1;;;;;;;;;;;;;
2020/12/17 03:13:58;;;;;;;1.1;0.8;;;;;;;;;;;;;
2020/12/17 03:16:24;;;;;;;1.6;1;;;;;;;;;;;;;
2020/12/17 03:18:49;;;;;;;0.4;0.4;;;;;;;;;;;;;
2020/12/17 03:21:15;;;;;;;1;0.8;;;;;;;;;;;;;
2020/12/17 03:23:40;;;;;;;1.4;0.6;;;;;;;;;;;;;
2020/12/17 03:26:07;;;;;;;1;0.8;;;;;;;;;;;;;
2020/12/17 03:28:31;;;;;;;0.5;0.5;;;;;;;;;;;;;
2020/12/17 03:30:58;;;;;;;1;0.9;;;;;;;;;;;;;
2020/12/17 03:33:23;;;;;;;0.7;0.6;;;;;;;;;;;;;
2020/12/17 03:35:49;;;;;;;1.1;0.6;;;;;;;;;;;;;
2020/12/17 03:38:14;;;;;;;4;0.7;;;;;;;;;;;;;
2020/12/17 03:40:42;;;;;;;0.5;0.5;;;;;;;;;;;;;
2020/12/17 03:43:07;;;;;;;0.6;0.6;;;;;;;;;;;;;
2020/12/17 03:45:32;;;;;;;1.9;1;;;;;;;;;;;;;
2020/12/17 03:47:57;;;;;;;1.3;0.8;;;;;;;;;;;;;
2020/12/17 03:50:22;;;;;;;0.8;0.5;;;;;;;;;;;;;
2020/12/17 03:52:48;;;;;;;0.7;0.5;;;;;;;;;;;;;
2020/12/17 03:55:14;;;;;;;1;0.6;;;;;;;;;;;;;
2020/12/17 03:57:39;;;;;;;1.6;1;;;;;;;;;;;;;
2020/12/17 04:00:05;;;;;;;0.8;0.7;;;;;;;;;;;;;
2020/12/17 04:02:31;;;;;;;0.9;0.6;;;;;;;1.24;88.54883;941.5427;;;;
2020/12/17 04:04:58;;;;;;;0.7;0.7;;;;;;;1.3;88.51758;941.5181;;;;
2020/12/17 04:07:23;;;;;;;3;1.1;;;;;;;1.45;88.4043;941.5745;;;;
2020/12/17 04:09:50;;;;;;;4.5;1.5;;;;;;;1.56;87.85742;941.5382;;;;
2020/12/17 04:12:15;;;;;;;1.7;1.5;;;;;;;1.64;87.41504;941.5697;;;;
2020/12/17 04:14:41;;;;;;;3.9;1.6;;;;;;;1.61;87.28516;941.6216;;;;
2020/12/17 04:17:06;;;;;;;1.8;1.2;;;;;;;1.57;86.99805;941.5488;;;;
2020/12/17 04:19:33;;;;;;;0.9;0.9;;;;;;;1.56;87.2998;941.6766;;;;
2020/12/17 04:21:58;;;;;;;2.5;1.3;;;;;;;1.66;86.91602;941.6476;;;;
2020/12/17 04:24:25;;;;;;;2.6;1.3;;;;;;;1.5;87.50879;941.7841;;;;
2020/12/17 04:26:50;;;;;;;2.4;0.8;;;;;;;1.46;88.12695;941.8261;;;;
2020/12/17 04:29:17;;;;;;;1.4;1.3;;;;;;;1.46;88.15137;941.8489;;;;
2020/12/17 04:31:42;;;;;;;1;0.7;;;;;;;1.51;87.78027;941.853;;;;
2020/12/17 04:34:09;;;;;;;0.7;0.7;;;;;;;1.58;87.36914;941.9033;;;;
2020/12/17 04:36:34;;;;;;;0.9;0.8;;;;;;;1.57;86.96484;941.9077;;;;
2020/12/17 04:39:01;;;;;;;4;0.7;;;;;;;1.59;86.41113;941.8921;;;;
2020/12/17 04:41:26;;;;;;;2;1.4;;;;;;;1.61;86.15723;941.913;;;;
2020/12/17 04:43:51;;;;;;;1.2;0.9;;;;;;;1.4;86.61816;941.916;;;;
2020/12/17 04:46:19;;;;;;;1.2;0.8;;;;;;;1.35;86.90918;941.9317;;;;
2020/12/17 04:48:43;;;;;;;0.6;0.6;;;;;;;1.32;87.24805;941.9584;;;;
2020/12/17 04:51:08;;;;;;;1.1;0.7;;;;;;;1.27;87.68359;941.9888;;;;
2020/12/17 04:53:33;;;;;;;0.7;0.7;;;;;;;1.21;87.75195;941.9926;;;;
2020/12/17 04:55:58;;;;;;;0.7;0.7;;;;;;;1.12;88.28125;941.9774;;;;
2020/12/17 04:58:24;;;;;;;0.6;0.4;;;;;;;1.18;88.37207;942.0064;;;;
2020/12/17 05:00:49;;;;;;;2.1;0.9;;;;;;;1.18;88.46191;941.9914;;;;
2020/12/17 05:03:16;;;;;;;0.9;0.7;;;;;;;1.28;88.54785;942.0295;;;;
2020/12/17 05:05:42;;;;;;;7.3;2;;;;;;;1.45;87.92383;942.0258;;;;
2020/12/17 05:08:09;;;;;;;4.8;2.2;;;;;;;1.52;87.47852;942.0463;;;;
2020/12/17 05:10:34;;;;;;;2.2;1.8;;;;;;;1.52;87.52539;942.07;;;;
2020/12/17 05:12:59;;;;;;;1.8;1.4;;;;;;;1.61;87.13965;941.9905;;;;
2020/12/17 05:15:24;;;;;;;2.8;2.1;;;;;;;1.69;86.7666;942.1108;;;;
2020/12/17 05:17:53;;;;;;;4.4;2.2;;;;;;;1.57;86.98633;942.082;;;;
2020/12/17 05:20:18;;;;;;;1.8;1.6;;;;;;;1.59;87.14746;942.1257;;;;
2020/12/17 05:22:45;;;;;;;2.4;1.3;;;;;;;1.64;86.97949;942.1583;;;;
2020/12/17 05:25:10;;;;;;;2.2;1.7;;;;;;;1.63;86.52051;942.1559;;;;
2020/12/17 05:27:39;;;;;;;2.8;2.1;;;;;;;1.58;86.36426;942.1428;;;;
2020/12/17 05:30:04;;;;;;;1.9;1.4;;;;;;;1.57;86.11426;942.0411;;;;
2020/12/17 05:32:31;;;;;;;3.8;2.2;;;;;;;1.49;86.39063;942.1539;;;;
2020/12/17 05:34:56;;;;;;;2;1;;;;;;;1.38;86.78223;942.2143;;;;
2020/12/17 05:37:22;;;;;;;1.9;1.2;;;;;;;1.35;87.08789;942.2762;;;;
2020/12/17 05:39:49;;;;;;;1.6;1.2;;;;;;;1.47;86.78711;942.2252;;;;
2020/12/17 05:42:14;;;;;;;1.5;1;;;;;;;1.55;86.54688;942.2872;;;;
2020/12/17 05:44:39;;;;;;;2.4;0.7;;;;;;;1.56;86.10352;942.3128;;;;
2020/12/17 05:47:04;;;;;;;1.4;1.1;;;;;;;1.52;86.09473;942.3901;;;;
2020/12/17 05:49:31;;;;;;;1.6;1.2;;;;;;;1.33;86.89355;942.3153;;;;
2020/12/17 05:51:56;;;;;;;2.6;1.5;;;;;;;1.23;87.7334;942.3801;;;;
2020/12/17 05:54:22;;;;;;;2.4;1.4;;;;;;;1.1;88.95801;942.3684;;;;
2020/12/17 05:56:47;;;;;;;2.4;1.5;;;;;;;1.02;89.86621;942.4458;;;;
2020/12/17 05:59:12;;;;;;;3.4;2.1;;;;;;;0.97;90.48145;942.4651;;;;
2020/12/17 06:01:37;;;;;;;4.4;1.7;;;;;;;0.94;91.14355;942.4467;;;;
2020/12/17 06:04:03;;;;;;;2.1;1.8;;;;;;;1;91.07031;942.4614;;;;
2020/12/17 06:06:28;;;;;;;2.1;1.1;;;;;;;1.14;90.37109;942.5428;;;;
2020/12/17 06:08:53;;;;;;;1.5;1.1;;;;;;;1.21;89.96191;942.5106;;;;
2020/12/17 06:11:18;;;;;;;3.1;1.2;;;;;;;1.33;89.25;942.5551;;;;
2020/12/17 06:13:45;;;;;;;1.1;1;;;;;;;1.39;88.61523;942.5675;;;;
2020/12/17 06:16:10;;;;;;;2.5;1.2;;;;;;;1.47;87.76172;942.6145;;;;
2020/12/17 06:18:37;;;;;;;3.3;1.1;;;;;;;1.17;88.55859;942.6754;;;;
2020/12/17 06:21:01;;;;;;;2.2;1.6;;;;;;;1.01;89.4082;942.7026;;;;
2020/12/17 06:23:29;;;;;;;6.4;2.8;;;;;;;0.98;89.90332;942.7131;;;;
2020/12/17 06:25:54;;;;;;;3.3;1.3;;;;;;;1.11;89.66211;942.7115;;;;
2020/12/17 06:28:19;;;;;;;1.8;1.1;;;;;;;1.18;89.23047;942.7151;;;;
2020/12/17 06:30:44;;;;;;;0.8;0.8;;;;;;;1.18;88.94043;942.6916;;;;
2020/12/17 06:33:10;;;;;;;2.1;1.4;;;;;;;1.29;89.09668;942.7539;;;;
2020/12/17 06:35:35;;;;;;;4.4;3;;;;;;;1.25;88.43945;942.7188;;;;
2020/12/17 06:38:00;;;;;;;2;1.4;;;;;;;1.17;88.20117;942.8119;;;;
2020/12/17 06:40:30;;;;;;;2.7;2.1;;;;;;;1.21;88.27539;942.9124;;;;
2020/12/17 06:42:55;;;;;;;2;1.6;;;;;;;1.25;88.24902;942.8851;;;;
2020/12/17 06:45:23;;;;;;;1.8;1.5;;;;;;;1.34;87.86816;942.9348;;;;
2020/12/17 06:47:51;;;;;;;4.7;2;;;;;;;1.24;87.93652;942.9453;;;;
2020/12/17 06:50:16;;;;;;;5.1;2.2;;;;;;;1.16;87.98633;942.9653;;;;
2020/12/17 06:52:43;;;;;;;5.1;1.8;;;;;;;1.1;88.1543;943.0114;;;;
2020/12/17 06:55:13;;;;;;;1.4;1;;;;;;;0.98;89.95898;943.005;;;;
2020/12/17 06:57:39;;;;;;;1.7;1.3;;;;;;;1.09;90.74121;943.1044;;;;
2020/12/17 07:00:04;;;;;;;9.7;2.5;;;;;;;1.21;89.91797;943.1022;;;;
2020/12/17 07:02:29;;;;;;;1.3;1;;;;;;;1.4;88.94238;943.1353;;;;
2020/12/17 07:04:57;;;;;;;2.8;1.9;;;;;;;1.47;88.25195;943.2075;;;;
2020/12/17 07:07:23;;;;;;;2.7;1.9;;;;;;;1.58;87.7373;943.2035;;;;
2020/12/17 07:09:49;;;;;;;18.1;9.3;;;;;;;1.59;87.00391;943.2821;;;;
2020/12/17 07:12:14;;;;;;;16.2;7.1;;;;;;;1.59;86.55664;943.2756;;;;
2020/12/17 07:14:41;;;;;;;10;5.6;;;;;;;1.61;86.29004;943.3058;;;;
2020/12/17 07:17:09;;;;;;;25.3;11.7;;;;;;;1.74;85.78027;943.343;;;;
2020/12/17 07:19:34;;;;;;;89.4;48.4;;;;;;;1.56;86.09082;943.3823;;;;
2020/12/17 07:21:59;;;;;;;5.6;3.9;;;;;;;1.64;86.50977;943.4953;;;;
2020/12/17 07:24:24;;;;;;;4.4;3.3;;;;;;;1.62;86.22656;943.5358;;;;
2020/12/17 07:26:49;;;;;;;6.2;3.2;;;;;;;1.73;86.06934;943.5776;;;;
2020/12/17 07:29:14;;;;;;;8.9;4.8;;;;;;;1.82;85.78613;943.6529;;;;
2020/12/17 07:31:39;;;;;;;3.3;2.4;;;;;;;1.84;85.81348;943.6831;;;;
2020/12/17 07:34:05;;;;;;;5.2;2.4;;;;;;;1.92;86.09668;943.598;;;;
2020/12/17 07:36:31;;;;;;;8.9;3.2;;;;;;;2;85.7666;943.6964;;;;
2020/12/17 07:38:56;;;;;;;2.8;2.1;;;;;;;2.01;85.62109;943.7653;;;;
2020/12/17 07:41:23;;;;;;;2.8;2.1;;;;;;;1.96;85.19922;943.7511;;;;
2020/12/17 07:43:49;;;;;;;13.1;5.4;;;;;;;1.97;85.16797;943.6854;;;;
2020/12/17 07:46:15;;;;;;;5.1;3.6;;;;;;;2.09;84.62012;943.8222;;;;
2020/12/17 07:48:44;;;;;;;9.9;3.5;;;;;;;2.09;84.70801;943.8008;;;;
2020/12/17 07:51:08;;;;;;;7.2;3.6;;;;;;;2.21;84.3418;943.8301;;;;
2020/12/17 07:53:35;;;;;;;3.5;1.9;;;;;;;2.25;84.18262;943.8579;;;;
2020/12/17 07:56:00;;;;;;;5.6;2.6;;;;;;;2.4;83.80762;943.9059;;;;
2020/12/17 07:58:28;;;;;;;3.4;2.1;;;;;;;2.5;83.37012;943.9099;;;;
2020/12/17 08:00:53;;;;;;;3.4;2.5;;;;;;;2.43;83.38867;943.9734;;;;
2020/12/17 08:03:18;;;;;;;6.1;3;;;;;;;2.6;83.02832;943.9261;;;;
2020/12/17 08:05:46;;;;;;;10.9;5.2;;;;;;;2.73;82.5957;943.9762;;;;
2020/12/17 08:08:11;;;;;;;7.7;4.4;;;;;;;2.58;83.15039;944.0144;;;;
2020/12/17 08:10:40;;;;;;;20;8.9;;;;;;;3.07;82.53711;944.0389;;;;
2020/12/17 08:13:08;;;;;;;25.2;10.3;;;;;;;3.9;80.68652;943.968;;;;
2020/12/17 08:15:33;;;;;;;38.8;17.5;;;;;;;4.72;76.21387;943.9864;;;;
2020/12/17 08:17:59;;;;;;;8.4;4.5;;;;;;;5.44;72.16699;944.0596;;;;
2020/12/17 08:20:25;;;;;;;9.2;5.1;;;;;;;5.61;70.53809;943.9924;;;;
2020/12/17 08:22:50;;;;;;;12.4;5.4;;;;;;;5.63;70.30176;944.0988;;;;
2020/12/17 08:25:16;;;;;;;15.3;8.3;;;;;;;5.57;70.19141;944.0111;;;;
2020/12/17 08:27:41;;;;;;;22.2;8.3;;;;;;;5.4;70.78418;944.1085;;;;
2020/12/17 08:30:11;;;;;;;37.7;18.7;;;;;;;5.73;70.95117;944.0715;;;;
2020/12/17 08:32:40;;;;;;;20.6;11.4;;;;;;;5.96;70.16406;944.0767;;;;
2020/12/17 08:35:09;;;;;;;26.7;10.2;;;;;;;6.66;67.92578;944.0833;;;;
2020/12/17 08:37:36;;;;;;;7.5;3.9;;;;;;;6.21;67.2207;944.1786;;;;
2020/12/17 08:40:01;;;;;;;8.8;4.3;;;;;;;5.72;69.12012;944.1716;;;;
2020/12/17 08:42:27;;;;;;;11.8;5.2;;;;;;;5.2;71.14551;944.2206;;;;
2020/12/17 08:44:52;;;;;;;6.6;3.2;;;;;;;4.91;72.34668;944.2173;;;;
2020/12/17 08:47:17;;;;;;;11;5.2;;;;;;;4.72;73.9707;944.2419;;;;
2020/12/17 08:49:42;;;;;;;11.7;4.3;;;;;;;4.67;74.7627;944.2571;;;;
2020/12/17 08:52:08;;;;;;;7.6;3.7;;;;;;;4.72;75.1084;944.2867;;;;
2020/12/17 08:54:33;;;;;;;10.5;4.9;;;;;;;4.64;75.65918;944.2631;;;;
2020/12/17 08:56:57;;;;;;;51.7;21.5;;;;;;;4.5;75.37402;944.2034;;;;
2020/12/17 08:59:26;;;;;;;43.2;18.9;;;;;;;4.2;76.6377;944.3258;;;;
2020/12/17 09:01:51;;;;;;;6;2.9;;;;;;;4.3;76.8457;944.3056;;;;
2020/12/17 09:04:19;;;;;;;11.7;5.6;;;;;;;4.15;76.14453;944.399;;;;
2020/12/17 09:06:44;;;;;;;12.2;5.9;;;;;;;4.09;76.61816;944.3897;;;;
2020/12/17 09:09:12;;;;;;;2.4;2;;;;;;;4.31;76.63477;944.459;;;;
2020/12/17 09:11:37;;;;;;;5.7;2.2;;;;;;;4.41;76.70898;944.4486;;;;
2020/12/17 09:14:02;;;;;;;2;1.5;;;;;;;4.62;76.03711;944.4617;;;;
2020/12/17 09:16:27;;;;;;;7.2;2.1;;;;;;;4.79;76.05664;944.4963;;;;
2020/12/17 09:18:54;;;;;;;4.3;1.8;;;;;;;4.81;76.11719;944.556;;;;
2020/12/17 09:21:19;;;;;;;7.3;4.6;;;;;;;4.86;75.50391;944.5491;;;;
2020/12/17 09:23:46;;;;;;;5.7;4.1;;;;;;;4.96;75.10449;944.5886;;;;
2020/12/17 09:26:12;;;;;;;5.6;2.6;;;;;;;5.04;75.19922;944.6239;;;;
2020/12/17 09:28:37;;;;;;;26.2;5;;;;;;;5.09;75.36523;944.6431;;;;
2020/12/17 09:31:02;;;;;;;7.4;3.3;;;;;;;5.1;75.59277;944.6711;;;;
2020/12/17 09:33:27;;;;;;;3.8;1.7;;;;;;;5.23;75.32324;944.5773;;;;
2020/12/17 09:35:52;;;;;;;2.7;1.8;;;;;;;5.4;74.75391;944.6785;;;;
2020/12/17 09:38:19;;;;;;;15.4;7.4;;;;;;;5.37;74.00488;944.6592;;;;
2020/12/17 09:40:49;;;;;;;6.2;3;;;;;;;5.25;72.13477;944.5915;;;;
2020/12/17 09:43:14;;;;;;;12.8;5.7;;;;;;;5.28;73.71777;944.587;;;;
2020/12/17 09:45:44;;;;;;;31.8;13.7;;;;;;;5.43;73.1582;944.6375;;;;
2020/12/17 09:48:10;;;;;;;6;2.5;;;;;;;5.53;72.79102;944.5078;;;;
2020/12/17 09:50:35;;;;;;;4;1.8;;;;;;;5.64;73.66797;944.6117;;;;
2020/12/17 09:53:00;;;;;;;5.4;2.7;;;;;;;5.83;72.09668;944.5126;;;;
2020/12/17 09:55:25;;;;;;;2.4;1.4;;;;;;;5.99;71.94336;944.4863;;;;
2020/12/17 09:57:52;;;;;;;0.7;0.6;;;;;;;6;72.27246;944.5483;;;;
2020/12/17 10:00:23;;;;;;;1;0.4;;;;;;;6.09;70.52441;944.4594;;;;
2020/12/17 10:02:52;;;;;;;5.2;2.4;;;;;;;6.23;70.60352;944.509;;;;
2020/12/17 10:05:19;;;;;;;3.1;1.2;;;;;;;6.37;70.25391;944.4705;;;;
2020/12/17 10:07:42;;;;;;;4.6;1.5;;;;;;;6.47;69.6709;944.4216;;;;
2020/12/17 10:10:14;;;;;;;3.5;2.4;;;;;;;6.56;68.49805;944.384;;;;
2020/12/17 10:12:42;;;;;;;1.9;1.1;;;;;;;6.76;69.0957;944.3546;;;;
2020/12/17 10:15:08;;;;;;;16.1;5.7;;;;;;;6.78;68.97559;944.3791;;;;
2020/12/17 10:17:37;;;;;;;1.9;1.2;;;;;;;6.79;70.32227;944.3808;;;;
2020/12/17 10:20:02;;;;;;;5.3;2;;;;;;;6.9;69.83105;944.3769;;;;
2020/12/17 10:22:27;;;;;;;3.1;1.2;;;;;;;6.89;68.67578;944.3799;;;;
2020/12/17 10:24:54;;;;;;;4.4;1.4;;;;;;;7.04;69.2998;944.3516;;;;
2020/12/17 10:27:20;;;;;;;3.2;1.7;;;;;;;7;69.99609;944.2957;;;;
2020/12/17 10:29:45;;;;;;;2.4;1.7;;;;;;;7.05;70.4541;944.2838;;;;
2020/12/17 10:32:13;;;;;;;56.5;24.2;;;;;;;7.07;68.22754;944.2333;;;;
2020/12/17 10:34:36;;;;;;;6.4;2.6;;;;;;;7.2;67.76074;944.2926;;;;
2020/12/17 10:37:04;;;;;;;3.9;0.9;;;;;;;7.27;69.04297;944.288;;;;
2020/12/17 10:39:27;;;;;;;4.7;2.3;;;;;;;7.31;66.57813;944.2551;;;;
2020/12/17 10:41:54;;;;;;;55.5;20.7;;;;;;;7.4;65.45898;944.1962;;;;
2020/12/17 10:44:19;;;;;;;242.2;95.3;;;;;;;7.43;63.34277;944.2031;;;;
2020/12/17 10:46:45;;;;;;;0.6;0.5;;;;;;;7.41;62.01563;944.1891;;;;
2020/12/17 10:49:11;;;;;;;8.6;5;;;;;;;7.49;63.08008;944.1685;;;;
2020/12/17 10:51:37;;;;;;;3.1;1.7;;;;;;;7.63;63.37402;944.1604;;;;
2020/12/17 10:54:02;;;;;;;1.3;0.9;;;;;;;7.71;62.6709;944.1683;;;;
2020/12/17 10:56:28;;;;;;;5.2;2.5;;;;;;;7.75;63.0957;944.1605;;;;
2020/12/17 10:58:55;;;;;;;2;1.3;;;;;;;7.8;62.42188;944.1002;;;;
2020/12/17 11:01:21;;;;;;;7.1;2.6;;;;;;;7.89;61.95801;944.0327;;;;
2020/12/17 11:03:46;;;;;;;3.1;1.9;;;;;;;7.94;61.72754;944.0365;;;;
2020/12/17 11:06:11;;;;;;;1.4;1;;;;;;;7.98;62.67676;944.0717;;;;
2020/12/17 11:08:36;;;;;;;3.4;1.8;;;;;;;7.98;61.80273;944.1082;;;;
2020/12/17 11:11:03;;;;;;;4.4;2.3;;;;;;;8.03;62.43164;944.0566;;;;
2020/12/17 11:13:28;;;;;;;1.6;1;;;;;;;8.05;61.17578;944.0516;;;;
2020/12/17 11:15:55;;;;;;;2.1;1.3;;;;;;;8.11;60.80859;944.0056;;;;
2020/12/17 11:18:21;;;;;;;4.8;2.3;;;;;;;8.11;60.33203;943.9945;;;;
2020/12/17 11:20:49;;;;;;;10.3;1.3;;;;;;;8.16;61.22559;943.9158;;;;
2020/12/17 11:23:14;;;;;;;3.3;1.4;;;;;;;8.3;61.18945;943.9677;;;;
2020/12/17 11:25:42;;;;;;;3.2;1.4;;;;;;;8.4;60.98633;943.9308;;;;
2020/12/17 11:28:07;;;;;;;9.4;4.6;;;;;;;8.47;59.46191;943.9481;;;;
2020/12/17 11:30:36;;;;;;;1.3;0.9;;;;;;;8.45;59.57324;943.9792;;;;
2020/12/17 11:33:03;;;;;;;21.2;8.2;;;;;;;8.58;58.50098;943.9352;;;;
2020/12/17 11:35:28;;;;;;;4.2;0.8;;;;;;;8.63;58.60938;943.9097;;;;
2020/12/17 11:37:55;;;;;;;7.1;1.3;;;;;;;8.79;59.50684;943.9875;;;;
2020/12/17 11:40:21;;;;;;;2.4;0.8;;;;;;;8.8;58.18945;943.991;;;;
2020/12/17 11:42:48;;;;;;;1.8;1.2;;;;;;;8.76;59.65137;943.994;;;;
2020/12/17 11:45:16;;;;;;;1.4;0.9;;;;;;;8.79;58.67871;943.9289;;;;
2020/12/17 11:47:45;;;;;;;6.5;1.6;;;;;;;8.92;58.60449;943.9333;;;;
2020/12/17 11:50:10;;;;;;;0.2;0.2;;;;;;;8.88;58.91699;943.8797;;;;
2020/12/17 11:52:39;;;;;;;1.4;0.5;;;;;;;8.74;59.85352;943.9316;;;;
2020/12/17 11:55:04;;;;;;;0.8;0.6;;;;;;;8.57;60.69238;943.9164;;;;
2020/12/17 11:57:29;;;;;;;2;1.3;;;;;;;8.83;59.58008;944.0055;;;;
2020/12/17 11:59:54;;;;;;;4.3;1.5;;;;;;;8.9;59.4082;943.9017;;;;
2020/12/17 12:02:19;;;;;;;9.5;0.7;;;;;;;8.55;59.57617;943.9827;;;;
2020/12/17 12:04:44;;;;;;;2.7;1.2;;;;;;;8.55;61.03027;944.0073;;;;
2020/12/17 12:07:12;;;;;;;2.5;1.2;;;;;;;8.56;60.82813;943.9973;;;;
2020/12/17 12:09:37;;;;;;;2.1;0.7;;;;;;;8.92;60.64063;943.9689;;;;
2020/12/17 12:12:02;;;;;;;1.2;0.8;;;;;;;8.91;59.73926;943.9338;;;;
2020/12/17 12:14:27;;;;;;;13;2.1;;;;;;;9.1;58.35449;944.0562;;;;
2020/12/17 12:16:55;;;;;;;3.6;1.4;;;;;;;9.07;59.24023;944.027;;;;
2020/12/17 12:19:19;;;;;;;1.2;0.4;;;;;;;8.96;58.90527;944.082;;;;
2020/12/17 12:21:46;;;;;;;2.1;0.9;;;;;;;8.98;57.71289;944.0854;;;;
2020/12/17 12:24:11;;;;;;;6.1;1.3;;;;;;;9.26;57.64844;944.12;;;;
2020/12/17 12:26:36;;;;;;;2;0.9;;;;;;;9.24;55.51563;944.0661;;;;
2020/12/17 12:29:01;;;;;;;3.6;1.1;;;;;;;9.49;56.07227;944.1239;;;;
2020/12/17 12:31:28;;;;;;;0.7;0.7;;;;;;;9.74;54.77148;944.0876;;;;
2020/12/17 12:33:54;;;;;;;0.3;0.3;;;;;;;9.82;53.26563;944.1176;;;;
2020/12/17 12:36:19;;;;;;;0.6;0.5;;;;;;;9.95;52.99707;944.0287;;;;
2020/12/17 12:38:44;;;;;;;2.4;1.1;;;;;;;9.88;54.72168;944.0902;;;;
2020/12/17 12:41:11;;;;;;;2.1;0.9;;;;;;;10.01;53.83594;944.0864;;;;
2020/12/17 12:43:36;;;;;;;2.4;0.7;;;;;;;10.13;53.00781;944.094;;;;
2020/12/17 12:46:02;;;;;;;3.5;1.4;;;;;;;10.31;53.65723;944.1197;;;;
2020/12/17 12:48:27;;;;;;;1.2;0.6;;;;;;;10.23;54.9707;944.1379;;;;
2020/12/17 12:50:52;;;;;;;1.8;1;;;;;;;10.05;57.66309;944.1092;;;;
2020/12/17 12:53:17;;;;;;;8.7;2.4;;;;;;;10.18;57.70313;944.1516;;;;
2020/12/17 12:55:43;;;;;;;5.9;2;;;;;;;10.12;55.88086;944.1606;;;;
2020/12/17 12:58:08;;;;;;;1;0.6;;;;;;;9.88;56.07813;944.1348;;;;
2020/12/17 13:00:37;;;;;;;1.7;0.9;;;;;;;9.94;56.66797;944.2115;;;;
2020/12/17 13:03:03;;;;;;;3.5;1.8;;;;;;;9.83;55.6377;944.144;;;;
2020/12/17 13:05:35;;;;;;;4.3;0.7;;;;;;;9.82;55.22656;944.1955;;;;
2020/12/17 13:08:01;;;;;;;0.2;0.2;;;;;;;9.93;53.8252;944.1181;;;;
2020/12/17 13:10:26;;;;;;;9.9;5.9;;;;;;;10.2;53.48438;944.1018;;;;
2020/12/17 13:12:51;;;;;;;2.2;1.3;;;;;;;10.48;54.16895;944.1312;;;;
2020/12/17 13:15:22;;;;;;;4.7;1.8;;;;;;;10.43;54.68848;944.1088;;;;
2020/12/17 13:17:49;;;;;;;1.5;0.8;;;;;;;10.17;54.67773;944.1528;;;;
2020/12/17 13:20:14;;;;;;;4;1.1;;;;;;;9.98;54.91699;944.1631;;;;
2020/12/17 13:22:40;;;;;;;2.1;0.9;;;;;;;10.13;54.92383;944.1561;;;;
2020/12/17 13:25:11;;;;;;;1.7;0.7;;;;;;;10.14;53.95508;944.1825;;;;
2020/12/17 13:27:37;;;;;;;10.2;7.5;;;;;;;10.39;53.39355;944.1857;;;;
2020/12/17 13:30:02;;;;;;;9.4;5.3;;;;;;;10.59;53.08691;944.1914;;;;
2020/12/17 13:32:29;;;;;;;4.6;1.6;;;;;;;11.59;50.93164;944.1985;;;;
2020/12/17 13:34:54;;;;;;;6.9;1.9;;;;;;;12.25;47.86816;944.2466;;;;
2020/12/17 13:37:20;;;;;;;12.4;2.7;;;;;;;12.88;47.23828;944.2402;;;;
2020/12/17 13:39:45;;;;;;;16.3;2.6;;;;;;;12.29;48.58398;944.3078;;;;
2020/12/17 13:42:11;;;;;;;2.5;1.2;;;;;;;11.76;50.05957;944.3162;;;;
2020/12/17 13:44:37;;;;;;;11.9;2.2;;;;;;;10.88;52.02637;944.3511;;;;
2020/12/17 13:47:03;;;;;;;3.9;1.1;;;;;;;10.92;52.46387;944.2913;;;;
2020/12/17 13:49:29;;;;;;;14.4;5.9;;;;;;;10.8;52.8623;944.3669;;;;
2020/12/17 13:51:55;;;;;;;6.2;1.9;;;;;;;10.28;54.13281;944.4175;;;;
2020/12/17 13:54:20;;;;;;;2.8;2;;;;;;;10.21;55.26465;944.4086;;;;
2020/12/17 13:56:46;;;;;;;1.6;0.8;;;;;;;9.96;55.88379;944.4363;;;;
2020/12/17 13:59:12;;;;;;;0.9;0.6;;;;;;;9.51;58.0918;944.4011;;;;
2020/12/17 14:01:36;;;;;;;2.1;1.2;;;;;;;9.38;60.64746;944.478;;;;
2020/12/17 14:04:02;;;;;;;1.9;1.3;;;;;;;9.03;61.53223;944.5414;;;;
2020/12/17 14:06:28;;;;;;;1.8;1.4;;;;;;;8.74;63.58203;944.5469;;;;
2020/12/17 14:08:52;;;;;;;5.6;1.6;;;;;;;8.82;62.63965;944.5732;;;;
2020/12/17 14:11:17;;;;;;;10.3;2.9;;;;;;;8.82;61.94629;944.6208;;;;
2020/12/17 14:13:44;;;;;;;14.1;5.7;;;;;;;8.47;62.50781;944.6155;;;;
2020/12/17 14:16:09;;;;;;;6.8;2.1;;;;;;;8.14;64.14063;944.6252;;;;
2020/12/17 14:18:34;;;;;;;33.4;14.4;;;;;;;7.95;64.79395;944.6273;;;;
2020/12/17 14:21:00;;;;;;;13.4;6;;;;;;;7.86;65.69922;944.666;;;;
2020/12/17 14:23:26;;;;;;;93;44.5;;;;;;;8.16;64.60938;944.705;;;;
2020/12/17 14:25:51;;;;;;;6.3;2.5;;;;;;;8.35;65.35352;944.7191;;;;
2020/12/17 14:28:17;;;;;;;6.7;2.4;;;;;;;8.45;64.81152;944.723;;;;
2020/12/17 14:30:44;;;;;;;6.4;2.4;;;;;;;8.5;65.35254;944.7123;;;;
2020/12/17 14:33:10;;;;;;;3.8;2.3;;;;;;;8.42;65.20508;944.7308;;;;
2020/12/17 14:35:35;;;;;;;3.4;2.1;;;;;;;8.64;65.21484;944.7451;;;;
2020/12/17 14:38:00;;;;;;;3.7;2;;;;;;;8.73;64.86523;944.772;;;;
2020/12/17 14:40:26;;;;;;;6.6;3.2;;;;;;;8.49;64.71484;944.7296;;;;
2020/12/17 14:42:51;;;;;;;5.6;3.1;;;;;;;8.45;64.64063;944.7665;;;;
2020/12/17 14:45:17;;;;;;;7.2;3.4;;;;;;;8.25;65.53125;944.7795;;;;
2020/12/17 14:47:45;;;;;;;9.8;4.9;;;;;;;8.25;65.61035;944.8588;;;;
2020/12/17 14:50:11;;;;;;;8.1;4.1;;;;;;;8.18;66.03125;944.9381;;;;
2020/12/17 14:52:37;;;;;;;7.2;3.4;;;;;;;8.11;66.15723;944.9615;;;;
2020/12/17 14:55:02;;;;;;;14;3.3;;;;;;;7.96;67.14453;944.991;;;;
2020/12/17 14:57:27;;;;;;;7.6;3.2;;;;;;;8.03;66.86035;944.9583;;;;
2020/12/17 14:59:53;;;;;;;6;3;;;;;;;8.25;66.29199;944.9381;;;;
2020/12/17 15:02:18;;;;;;;6;2.8;;;;;;;8.4;66.15527;945.0005;;;;
2020/12/17 15:04:47;;;;;;;4;2.3;;;;;;;8.08;66.8457;945.0345;;;;
2020/12/17 15:07:12;;;;;;;3.9;2.5;;;;;;;8.15;66.5498;945.0666;;;;
2020/12/17 15:09:40;;;;;;;5.6;3.2;;;;;;;8.21;66.60449;945.071;;;;
2020/12/17 15:12:05;;;;;;;6.2;3.6;;;;;;;7.95;67.39258;945.0652;;;;
2020/12/17 15:14:32;;;;;;;10.9;4.9;;;;;;;7.82;68.34863;945.0748;;;;
2020/12/17 15:16:57;;;;;;;5.5;2.9;;;;;;;7.92;68.02344;945.1397;;;;
2020/12/17 15:19:23;;;;;;;7.6;3.6;;;;;;;8.09;68.27637;945.1355;;;;
2020/12/17 15:21:48;;;;;;;6.8;3.7;;;;;;;8.18;67.97266;945.1317;;;;
2020/12/17 15:24:14;;;;;;;6.4;4.4;;;;;;;8.05;68.06641;945.0478;;;;
2020/12/17 15:26:39;;;;;;;8.9;4.7;;;;;;;7.74;68.98047;945.1298;;;;
2020/12/17 15:29:08;;;;;;;10.2;5.1;;;;;;;7.56;69.75684;945.1395;;;;
2020/12/17 15:31:33;;;;;;;21.7;6;;;;;;;7.59;69.7627;945.1652;;;;
2020/12/17 15:33:59;;;;;;;25.3;14;;;;;;;7.3;70.90527;945.1406;;;;
2020/12/17 15:36:24;;;;;;;17.3;8;;;;;;;7.14;71.58105;945.1627;;;;
2020/12/17 15:38:50;;;;;;;20.5;8.2;;;;;;;6.93;72.48438;945.2067;;;;